sensor_id;sensor_type;location;lat;lon;timestamp;pressure;altitude;pressure_sealevel;temperature;humidity
55317;BME280;41178;48.956;8.130;2023-02-11T11:06:30;101581.28;;;0.91;54.24
55317;BME280;41178;48.956;8.130;2023-02-11T11:11:50;101498.13;;;2.77;51.78
55317;BME280;41178;48.956;8.130;2023-02-11T11:16:52;101540.25;;;2.49;51.26
55317;BME280;41178;48.956;8.130;2023-02-11T11:21:55;101523.75;;;2.90;51.79
55317;BME280;41178;48.956;8.130;2023-02-11T11:26:59;101520.25;;;3.06;51.30
55317;BME280;41178;48.956;8.130;2023-02-11T11:32:31;101553.75;;;2.29;52.18
55317;BME280;41178;48.956;8.130;2023-02-11T11:37:35;101492.78;;;3.64;50.27
55317;BME280;41178;48.956;8.130;2023-02-11T11:42:38;101485.28;;;4.80;49.62
55317;BME280;41178;48.956;8.130;2023-02-11T11:58:10;101552.84;;;3.78;50.81
55317;BME280;41178;48.956;8.130;2023-02-11T12:35:25;101520.50;;;5.21;48.05
55317;BME280;41178;48.956;8.130;2023-02-11T12:40:51;101526.16;;;5.03;48.88
55317;BME280;41178;48.956;8.130;2023-02-11T12:57:05;101493.94;;;5.96;48.40
55317;BME280;41178;48.956;8.130;2023-02-11T13:02:20;101545.63;;;4.76;48.79
55317;BME280;41178;48.956;8.130;2023-02-11T13:07:36;101517.00;;;5.07;48.95
55317;BME280;41178;48.956;8.130;2023-02-11T13:12:43;101539.25;;;4.66;49.91
55317;BME280;41178;48.956;8.130;2023-02-11T13:18:28;101522.53;;;5.04;48.77
55317;BME280;41178;48.956;8.130;2023-02-11T13:33:42;101517.19;;;5.56;48.44
55317;BME280;41178;48.956;8.130;2023-02-11T13:38:57;101515.19;;;5.59;47.83
55317;BME280;41178;48.956;8.130;2023-02-11T13:44:21;101533.41;;;5.77;48.75
55317;BME280;41178;48.956;8.130;2023-02-11T13:54:32;101483.59;;;6.64;46.89
55317;BME280;41178;48.956;8.130;2023-02-11T14:04:36;101530.97;;;6.11;48.10
55317;BME280;41178;48.956;8.130;2023-02-11T14:09:57;101518.59;;;5.23;48.39
55317;BME280;41178;48.956;8.130;2023-02-11T14:15:24;101477.78;;;7.06;46.63
55317;BME280;41178;48.956;8.130;2023-02-11T14:20:37;101498.81;;;6.73;47.67
55317;BME280;41178;48.956;8.130;2023-02-11T14:25:43;101492.16;;;6.68;47.69
55317;BME280;41178;48.956;8.130;2023-02-11T14:31:02;101511.72;;;5.59;49.04
55317;BME280;41178;48.956;8.130;2023-02-11T14:41:22;101493.00;;;6.57;48.10
55317;BME280;41178;48.956;8.130;2023-02-11T14:46:25;101514.44;;;5.44;49.50
55317;BME280;41178;48.956;8.130;2023-02-11T14:51:33;101495.00;;;6.42;48.34
55317;BME280;41178;48.956;8.130;2023-02-11T14:56:36;101511.06;;;5.42;49.08
55317;BME280;41178;48.956;8.130;2023-02-11T15:01:45;101530.66;;;5.78;49.11
55317;BME280;41178;48.956;8.130;2023-02-11T15:06:49;101496.00;;;6.88;48.24
55317;BME280;41178;48.956;8.130;2023-02-11T15:11:52;101519.28;;;6.13;49.49
55317;BME280;41178;48.956;8.130;2023-02-11T15:17:01;101523.31;;;5.82;49.48
55317;BME280;41178;48.956;8.130;2023-02-11T15:22:06;101526.13;;;6.29;49.04
55317;BME280;41178;48.956;8.130;2023-02-11T15:27:14;101489.72;;;7.34;47.71
55317;BME280;41178;48.956;8.130;2023-02-11T15:37:21;101521.88;;;6.50;48.79
55317;BME280;41178;48.956;8.130;2023-02-11T15:47:27;101492.63;;;7.53;46.37
55317;BME280;41178;48.956;8.130;2023-02-11T15:52:30;101488.88;;;7.90;45.58
55317;BME280;41178;48.956;8.130;2023-02-11T15:57:32;101527.00;;;7.11;47.12
55317;BME280;41178;48.956;8.130;2023-02-11T16:02:34;101537.38;;;6.92;47.80
55317;BME280;41178;48.956;8.130;2023-02-11T16:07:42;101554.72;;;7.20;47.12
55317;BME280;41178;48.956;8.130;2023-02-11T16:23:40;101537.41;;;7.82;45.70
55317;BME280;41178;48.956;8.130;2023-02-11T16:28:45;101548.47;;;8.65;44.64
55317;BME280;41178;48.956;8.130;2023-02-11T16:33:46;101549.31;;;7.44;45.54
55317;BME280;41178;48.956;8.130;2023-02-11T16:38:48;101556.84;;;8.28;45.13
55317;BME280;41178;48.956;8.130;2023-02-11T16:43:56;101581.28;;;7.89;45.83
55317;BME280;41178;48.956;8.130;2023-02-11T16:54:27;101564.75;;;7.05;46.82
55317;BME280;41178;48.956;8.130;2023-02-11T16:59:30;101594.84;;;6.94;47.58
55317;BME280;41178;48.956;8.130;2023-02-11T17:04:31;101600.75;;;6.38;48.36
55317;BME280;41178;48.956;8.130;2023-02-11T17:09:34;101601.88;;;6.47;48.45
55317;BME280;41178;48.956;8.130;2023-02-11T17:14:36;101595.19;;;7.36;47.90
55317;BME280;41178;48.956;8.130;2023-02-11T17:19:38;101544.09;;;7.88;46.65
55317;BME280;41178;48.956;8.130;2023-02-11T17:24:40;101593.25;;;7.39;47.83
55317;BME280;41178;48.956;8.130;2023-02-11T17:29:42;101538.78;;;7.77;46.10
55317;BME280;41178;48.956;8.130;2023-02-11T17:34:44;101602.34;;;7.36;47.24
55317;BME280;41178;48.956;8.130;2023-02-11T17:39:47;101592.44;;;7.49;46.90
55317;BME280;41178;48.956;8.130;2023-02-11T17:44:49;101572.66;;;7.41;46.61
55317;BME280;41178;48.956;8.130;2023-02-11T17:49:51;101592.06;;;7.54;47.10
55317;BME280;41178;48.956;8.130;2023-02-11T17:54:53;101578.75;;;7.99;46.10
55317;BME280;41178;48.956;8.130;2023-02-11T17:59:55;101616.78;;;7.56;47.77
55317;BME280;41178;48.956;8.130;2023-02-11T18:04:57;101619.84;;;7.27;47.61
55317;BME280;41178;48.956;8.130;2023-02-11T18:09:59;101569.88;;;5.75;49.92
55317;BME280;41178;48.956;8.130;2023-02-11T18:15:01;101604.88;;;6.91;47.80
55317;BME280;41178;48.956;8.130;2023-02-11T18:20:03;101626.25;;;6.78;48.22
55317;BME280;41178;48.956;8.130;2023-02-11T18:25:06;101593.72;;;6.13;48.58
55317;BME280;41178;48.956;8.130;2023-02-11T18:30:13;101625.31;;;6.66;48.37
55317;BME280;41178;48.956;8.130;2023-02-11T18:35:15;101620.91;;;6.78;48.08
55317;BME280;41178;48.956;8.130;2023-02-11T18:40:17;101588.38;;;5.50;50.00
55317;BME280;41178;48.956;8.130;2023-02-11T18:45:19;101629.31;;;6.23;49.00
55317;BME280;41178;48.956;8.130;2023-02-11T18:50:21;101632.94;;;6.71;48.12
55317;BME280;41178;48.956;8.130;2023-02-11T18:55:23;101617.13;;;6.45;48.08
55317;BME280;41178;48.956;8.130;2023-02-11T19:00:26;101608.91;;;6.48;47.78
55317;BME280;41178;48.956;8.130;2023-02-11T19:05:30;101562.75;;;7.77;45.83
55317;BME280;41178;48.956;8.130;2023-02-11T19:10:33;101613.88;;;6.29;48.35
55317;BME280;41178;48.956;8.130;2023-02-11T19:15:42;101646.63;;;6.29;49.38
55317;BME280;41178;48.956;8.130;2023-02-11T19:20:45;101655.03;;;6.60;49.18
55317;BME280;41178;48.956;8.130;2023-02-11T19:25:47;101619.34;;;7.11;48.10
55317;BME280;41178;48.956;8.130;2023-02-11T19:30:49;101626.97;;;6.80;48.41
55317;BME280;41178;48.956;8.130;2023-02-11T19:35:50;101610.53;;;6.62;48.57
55317;BME280;41178;48.956;8.130;2023-02-11T19:40:56;101556.91;;;7.15;47.54
55317;BME280;41178;48.956;8.130;2023-02-11T19:46:00;101603.56;;;6.72;48.81
55317;BME280;41178;48.956;8.130;2023-02-11T19:51:08;101622.53;;;6.68;48.68
55317;BME280;41178;48.956;8.130;2023-02-11T19:56:14;101613.53;;;6.33;49.17
55317;BME280;41178;48.956;8.130;2023-02-11T20:01:18;101595.97;;;6.06;50.40
55317;BME280;41178;48.956;8.130;2023-02-11T20:06:23;101598.81;;;6.16;49.84
55317;BME280;41178;48.956;8.130;2023-02-11T20:11:27;101600.16;;;6.22;50.01
55317;BME280;41178;48.956;8.130;2023-02-11T20:16:30;101596.50;;;6.84;49.35
55317;BME280;41178;48.956;8.130;2023-02-11T20:21:50;101610.53;;;6.01;51.32
55317;BME280;41178;48.956;8.130;2023-02-11T20:26:53;101606.28;;;6.35;50.90
55317;BME280;41178;48.956;8.130;2023-02-11T20:31:56;101602.41;;;6.15;51.19
55317;BME280;41178;48.956;8.130;2023-02-11T20:36:58;101583.59;;;5.68;51.77
55317;BME280;41178;48.956;8.130;2023-02-11T20:42:00;101599.13;;;6.12;51.35
55317;BME280;41178;48.956;8.130;2023-02-11T20:47:02;101600.97;;;6.35;51.29
55317;BME280;41178;48.956;8.130;2023-02-11T20:52:03;101588.59;;;5.60;52.41
55317;BME280;41178;48.956;8.130;2023-02-11T20:57:05;101568.28;;;5.46;52.96
55317;BME280;41178;48.956;8.130;2023-02-11T21:02:08;101564.75;;;4.94;54.48
55317;BME280;41178;48.956;8.130;2023-02-11T21:07:10;101565.09;;;5.03;54.37
55317;BME280;41178;48.956;8.130;2023-02-11T21:12:12;101598.88;;;5.26;54.36
55317;BME280;41178;48.956;8.130;2023-02-11T21:17:14;101590.47;;;5.20;54.11
55317;BME280;41178;48.956;8.130;2023-02-11T21:22:15;101557.44;;;4.85;54.09
55317;BME280;41178;48.956;8.130;2023-02-11T21:27:17;101578.91;;;5.21;53.79
55317;BME280;41178;48.956;8.130;2023-02-11T21:32:19;101559.78;;;5.80;52.59
55317;BME280;41178;48.956;8.130;2023-02-11T21:37:21;101568.97;;;6.00;52.71
55317;BME280;41178;48.956;8.130;2023-02-11T21:42:23;101566.25;;;5.50;53.30
55317;BME280;41178;48.956;8.130;2023-02-11T21:47:25;101525.69;;;7.17;50.92
55317;BME280;41178;48.956;8.130;2023-02-11T21:52:26;101590.50;;;5.71;52.99
55317;BME280;41178;48.956;8.130;2023-02-11T21:57:28;101587.91;;;5.95;52.35
55317;BME280;41178;48.956;8.130;2023-02-11T22:02:31;101516.56;;;6.86;51.58
55317;BME280;41178;48.956;8.130;2023-02-11T22:07:34;101493.56;;;7.86;49.60
55317;BME280;41178;48.956;8.130;2023-02-11T22:12:36;101604.41;;;5.49;53.75
55317;BME280;41178;48.956;8.130;2023-02-11T22:17:38;101501.09;;;8.25;48.37
55317;BME280;41178;48.956;8.130;2023-02-11T22:22:40;101517.66;;;8.07;48.17
55317;BME280;41178;48.956;8.130;2023-02-11T22:27:42;101543.66;;;8.26;47.70
55317;BME280;41178;48.956;8.130;2023-02-11T22:32:43;101554.75;;;7.54;48.66
55317;BME280;41178;48.956;8.130;2023-02-11T22:37:45;101611.31;;;7.80;48.90
55317;BME280;41178;48.956;8.130;2023-02-11T22:42:47;101590.22;;;7.66;48.74
55317;BME280;41178;48.956;8.130;2023-02-11T22:47:49;101638.75;;;7.35;49.71
55317;BME280;41178;48.956;8.130;2023-02-11T22:52:50;101605.09;;;7.23;49.19
55317;BME280;41178;48.956;8.130;2023-02-11T22:57:52;101620.25;;;6.98;49.71
55317;BME280;41178;48.956;8.130;2023-02-11T23:02:54;101619.34;;;7.11;49.84
55317;BME280;41178;48.956;8.130;2023-02-11T23:07:56;101631.69;;;7.92;48.59
55317;BME280;41178;48.956;8.130;2023-02-11T23:12:58;101608.56;;;6.16;50.73
55317;BME280;41178;48.956;8.130;2023-02-11T23:18:00;101686.38;;;6.68;51.48
55317;BME280;41178;48.956;8.130;2023-02-11T23:23:02;101665.00;;;7.17;50.78
55317;BME280;41178;48.956;8.130;2023-02-11T23:28:04;101610.81;;;7.52;48.93
55317;BME280;41178;48.956;8.130;2023-02-11T23:33:05;101631.59;;;5.40;53.45
55317;BME280;41178;48.956;8.130;2023-02-11T23:38:07;101681.53;;;6.24;52.66
55317;BME280;41178;48.956;8.130;2023-02-11T23:43:09;101630.84;;;6.76;50.37
55317;BME280;41178;48.956;8.130;2023-02-11T23:48:11;101590.47;;;8.08;48.10
55317;BME280;41178;48.956;8.130;2023-02-11T23:53:12;101603.66;;;7.30;48.89
55317;BME280;41178;48.956;8.130;2023-02-11T23:58:15;101657.63;;;7.21;49.90
